createdAt,value
2023-03-29T00:01:00.130Z,7.52
2023-03-29T00:03:27.544Z,7.54
2023-03-29T00:06:03.107Z,7.57
2023-03-29T00:08:31.517Z,7.59
2023-03-29T00:10:59.303Z,7.59
2023-03-29T00:13:27.264Z,7.57
2023-03-29T00:15:54.913Z,7.55
2023-03-29T00:18:21.534Z,7.58
2023-03-29T00:20:57.257Z,7.57
2023-03-29T00:23:27.343Z,7.58
2023-03-29T00:25:54.734Z,7.61
2023-03-29T00:28:21.690Z,7.63
2023-03-29T00:30:50.513Z,7.65
2023-03-29T00:33:18.990Z,7.65
2023-03-29T00:35:46.202Z,7.64
2023-03-29T00:38:13.066Z,7.69
2023-03-29T00:40:44.633Z,7.68
2023-03-29T00:43:12.509Z,7.71
2023-03-29T00:45:39.077Z,7.74
2023-03-29T00:48:15.851Z,7.71
2023-03-29T00:50:52.753Z,7.63
2023-03-29T00:53:23.857Z,7.62
2023-03-29T00:56:06.333Z,7.66
2023-03-29T00:58:49.402Z,7.70
2023-03-29T01:01:20.748Z,7.69
2023-03-29T01:03:54.400Z,7.70
2023-03-29T01:06:24.818Z,7.70
2023-03-29T01:08:56.656Z,7.70
2023-03-29T01:11:28.285Z,7.71
2023-03-29T01:14:34.550Z,7.76
2023-03-29T01:17:01.154Z,7.74
2023-03-29T01:19:33.927Z,7.75
2023-03-29T01:22:22.347Z,7.73
2023-03-29T01:25:15.100Z,7.76
2023-03-29T01:28:02.673Z,7.78
2023-03-29T01:30:37.239Z,7.81
2023-03-29T01:33:26.709Z,7.83
2023-03-29T01:35:57.747Z,7.86
2023-03-29T01:38:36.416Z,7.91
2023-03-29T01:41:05.386Z,7.91
2023-03-29T01:43:41.321Z,7.92
2023-03-29T01:46:15.406Z,7.91
2023-03-29T01:48:51.604Z,7.93
2023-03-29T01:51:24.793Z,7.94
2023-03-29T01:53:59.857Z,7.97
2023-03-29T01:56:29.126Z,7.95
2023-03-29T01:59:05.825Z,8.00
2023-03-29T02:01:40.605Z,8.02
2023-03-29T02:04:14.023Z,8.04
2023-03-29T02:06:41.779Z,8.05
2023-03-29T02:09:09.150Z,8.09
2023-03-29T02:11:36.805Z,8.08
2023-03-29T02:14:03.523Z,8.12
2023-03-29T02:16:36.009Z,8.13
2023-03-29T02:19:03.303Z,8.12
2023-03-29T02:21:44.684Z,8.15
2023-03-29T02:24:15.292Z,8.18
2023-03-29T02:26:41.770Z,8.20
2023-03-29T02:29:08.433Z,8.24
2023-03-29T02:31:40.977Z,8.24
2023-03-29T02:34:28.202Z,8.25
2023-03-29T02:36:59.918Z,8.26
2023-03-29T02:39:29.450Z,8.29
2023-03-29T02:41:56.737Z,8.29
2023-03-29T02:44:27.711Z,8.32
2023-03-29T02:46:58.841Z,8.32
2023-03-29T02:49:25.394Z,8.33
2023-03-29T02:51:56.020Z,8.34
2023-03-29T02:54:27.021Z,8.36
2023-03-29T02:56:59.116Z,8.36
2023-03-29T02:59:26.223Z,8.33
2023-03-29T03:01:53.588Z,8.34
2023-03-29T03:04:23.085Z,8.28
2023-03-29T03:06:49.531Z,8.32
2023-03-29T03:09:15.928Z,8.36
2023-03-29T03:11:43.364Z,8.38
2023-03-29T03:14:10.288Z,8.42
2023-03-29T03:16:37.349Z,8.42
2023-03-29T03:19:04.345Z,8.44
2023-03-29T03:21:30.944Z,8.46
2023-03-29T03:23:57.347Z,8.47
2023-03-29T03:26:24.938Z,8.43
2023-03-29T03:28:51.447Z,8.41
2023-03-29T03:31:19.564Z,8.40
2023-03-29T03:33:45.991Z,8.46
2023-03-29T03:36:13.885Z,8.47
2023-03-29T03:38:41.272Z,8.48
2023-03-29T03:41:07.731Z,8.45
2023-03-29T03:43:34.759Z,8.51
2023-03-29T03:46:02.032Z,8.50
2023-03-29T03:48:28.527Z,8.51
2023-03-29T03:50:58.162Z,8.54
2023-03-29T03:53:27.361Z,8.56
2023-03-29T03:55:55.960Z,8.57
2023-03-29T03:58:23.188Z,8.59
2023-03-29T04:00:50.779Z,8.57
2023-03-29T04:03:17.679Z,8.54
2023-03-29T04:05:48.843Z,8.51
2023-03-29T04:08:15.367Z,8.54
2023-03-29T04:10:42.355Z,8.53
2023-03-29T04:13:08.768Z,8.51
2023-03-29T04:15:38.666Z,8.50
2023-03-29T04:18:07.308Z,8.54
2023-03-29T04:20:34.634Z,8.55
2023-03-29T04:23:01.796Z,8.54
2023-03-29T04:25:28.555Z,8.57
2023-03-29T04:27:56.070Z,8.57
2023-03-29T04:30:22.584Z,8.56
2023-03-29T04:32:49.062Z,8.58
2023-03-29T04:35:15.450Z,8.57
2023-03-29T04:37:44.439Z,8.50
2023-03-29T04:40:14.923Z,8.51
2023-03-29T04:42:45.869Z,8.54
2023-03-29T04:45:14.053Z,8.55
2023-03-29T04:47:42.032Z,8.56
2023-03-29T04:50:09.731Z,8.61
2023-03-29T04:52:36.143Z,8.63
2023-03-29T04:55:03.926Z,8.63
2023-03-29T04:57:30.831Z,8.66
2023-03-29T04:59:57.452Z,8.67
2023-03-29T05:02:23.992Z,8.70
2023-03-29T05:04:50.553Z,8.66
2023-03-29T05:07:19.807Z,8.65
2023-03-29T05:09:46.348Z,8.66
2023-03-29T05:12:12.882Z,8.70
2023-03-29T05:14:39.222Z,8.73
2023-03-29T05:17:06.466Z,8.76
2023-03-29T05:19:33.627Z,8.78
2023-03-29T05:22:00.712Z,8.77
2023-03-29T05:24:27.252Z,8.76
2023-03-29T05:26:53.612Z,8.77
2023-03-29T05:29:20.165Z,8.81
2023-03-29T05:31:47.095Z,8.84
2023-03-29T05:34:13.719Z,8.84
2023-03-29T05:36:40.341Z,8.86
2023-03-29T05:39:07.289Z,8.88
2023-03-29T05:41:34.402Z,8.92
2023-03-29T05:44:00.927Z,8.90
2023-03-29T05:46:27.383Z,8.89
2023-03-29T05:48:54.181Z,8.84
2023-03-29T05:51:24.244Z,8.89
2023-03-29T05:53:51.542Z,8.93
2023-03-29T05:56:19.033Z,8.97
2023-03-29T05:58:54.454Z,8.97
2023-03-29T06:01:22.553Z,8.99
2023-03-29T06:03:49.213Z,9.03
2023-03-29T06:06:16.687Z,9.02
2023-03-29T06:08:44.291Z,9.05
2023-03-29T06:11:13.215Z,9.04
2023-03-29T06:13:40.170Z,9.05
2023-03-29T06:16:07.274Z,9.08
2023-03-29T06:18:34.136Z,9.08
2023-03-29T06:21:02.738Z,9.13
2023-03-29T06:23:30.683Z,9.16
2023-03-29T06:25:58.093Z,9.17
2023-03-29T06:28:24.732Z,9.20
2023-03-29T06:30:51.415Z,9.23
2023-03-29T06:33:18.660Z,9.25
2023-03-29T06:35:47.461Z,9.29
2023-03-29T06:38:15.213Z,9.34
2023-03-29T06:40:43.178Z,9.38
2023-03-29T06:43:09.669Z,9.44
2023-03-29T06:45:37.844Z,9.49
2023-03-29T06:48:05.919Z,9.53
2023-03-29T06:50:32.575Z,9.55
2023-03-29T06:52:59.079Z,9.58
2023-03-29T06:55:27.237Z,9.58
2023-03-29T06:57:54.816Z,9.61
2023-03-29T07:00:30.588Z,9.64
2023-03-29T07:02:58.897Z,9.64
2023-03-29T07:05:29.318Z,9.67
2023-03-29T07:08:11.762Z,9.68
2023-03-29T07:10:41.217Z,9.69
2023-03-29T07:13:11.075Z,9.74
2023-03-29T07:15:37.702Z,9.76
2023-03-29T07:18:07.389Z,9.78
2023-03-29T07:20:33.967Z,9.82
2023-03-29T07:23:02.396Z,9.87
2023-03-29T07:25:29.967Z,9.90
2023-03-29T07:27:58.630Z,9.94
2023-03-29T07:30:30.944Z,9.99
2023-03-29T07:33:00.639Z,10.04
2023-03-29T07:35:27.879Z,10.05
2023-03-29T07:37:58.400Z,10.07
2023-03-29T07:40:26.300Z,10.09
2023-03-29T07:42:55.051Z,10.17
2023-03-29T07:45:26.787Z,10.24
2023-03-29T07:47:57.491Z,10.30
2023-03-29T07:50:24.724Z,10.37
2023-03-29T07:52:51.473Z,10.46
2023-03-29T07:55:18.201Z,10.49
2023-03-29T07:57:44.594Z,10.54
2023-03-29T08:00:16.011Z,10.60
2023-03-29T08:02:48.131Z,10.68
2023-03-29T08:05:23.238Z,10.68
2023-03-29T08:07:56.194Z,10.72
2023-03-29T08:10:23.042Z,10.75
2023-03-29T08:12:50.269Z,10.77
2023-03-29T08:15:16.973Z,10.81
2023-03-29T08:17:43.870Z,10.85
2023-03-29T08:20:13.087Z,10.86
2023-03-29T08:22:39.474Z,10.91
2023-03-29T08:25:08.109Z,10.94
2023-03-29T08:27:37.440Z,10.99
2023-03-29T08:30:06.691Z,11.03
2023-03-29T08:32:33.320Z,11.05
2023-03-29T08:35:01.401Z,11.10
2023-03-29T08:37:28.121Z,11.14
2023-03-29T08:39:54.557Z,11.19
2023-03-29T08:42:55.304Z,11.28
2023-03-29T08:45:33.826Z,11.37
2023-03-29T08:48:25.483Z,11.44
2023-03-29T08:50:58.447Z,11.43
2023-03-29T08:53:31.816Z,11.46
2023-03-29T08:56:02.463Z,11.47
2023-03-29T08:58:32.805Z,11.47
2023-03-29T09:01:01.803Z,11.49
2023-03-29T09:03:45.298Z,11.50
2023-03-29T09:06:12.906Z,11.55
2023-03-29T09:08:45.539Z,11.63
2023-03-29T09:11:23.821Z,11.66
2023-03-29T09:14:21.452Z,11.70
2023-03-29T09:17:21.538Z,11.73
2023-03-29T09:20:22.114Z,11.79
2023-03-29T09:23:02.230Z,11.85
2023-03-29T09:25:53.417Z,11.94
2023-03-29T09:28:54.943Z,11.97
2023-03-29T09:31:26.014Z,11.96
2023-03-29T09:33:58.598Z,12.01
2023-03-29T09:36:52.523Z,12.08
2023-03-29T09:39:21.199Z,12.04
2023-03-29T09:41:51.044Z,12.06
2023-03-29T09:44:30.738Z,12.13
2023-03-29T09:47:06.121Z,12.17
2023-03-29T09:49:42.760Z,12.24
2023-03-29T09:52:13.000Z,12.28
2023-03-29T09:54:39.861Z,12.31
2023-03-29T09:57:06.856Z,12.31
2023-03-29T09:59:33.517Z,12.36
2023-03-29T10:02:12.907Z,12.42
2023-03-29T10:04:42.460Z,12.42
2023-03-29T10:07:20.709Z,12.47
2023-03-29T10:09:56.701Z,12.51
2023-03-29T10:12:23.229Z,12.47
2023-03-29T10:14:53.942Z,12.61
2023-03-29T10:17:26.719Z,12.64
2023-03-29T10:20:03.975Z,12.70
2023-03-29T10:22:41.121Z,12.77
2023-03-29T10:25:17.120Z,12.83
2023-03-29T10:27:46.781Z,12.84
2023-03-29T10:30:25.350Z,12.84
2023-03-29T10:33:00.331Z,12.79
2023-03-29T10:35:34.597Z,12.77
2023-03-29T10:38:07.545Z,12.78
2023-03-29T10:40:40.191Z,12.84
2023-03-29T10:43:21.810Z,12.94
2023-03-29T10:45:54.196Z,13.03
2023-03-29T10:48:27.776Z,13.09
2023-03-29T10:50:58.491Z,13.13
2023-03-29T10:53:29.261Z,13.15
2023-03-29T10:56:01.697Z,13.14
2023-03-29T10:58:42.337Z,13.12
2023-03-29T11:01:22.236Z,13.17
2023-03-29T11:04:07.860Z,13.25
2023-03-29T11:06:46.086Z,13.31
2023-03-29T11:09:49.805Z,13.41
2023-03-29T11:12:21.566Z,13.49
2023-03-29T11:15:19.069Z,13.55
2023-03-29T11:18:23.245Z,13.61
2023-03-29T11:21:16.832Z,13.62
2023-03-29T11:23:59.647Z,13.60
2023-03-29T11:26:39.950Z,13.54
2023-03-29T11:29:23.631Z,13.53
2023-03-29T11:31:59.295Z,13.52
2023-03-29T11:34:37.699Z,13.46
2023-03-29T11:37:20.414Z,13.42
2023-03-29T11:40:15.976Z,13.39
2023-03-29T11:42:48.288Z,13.34
2023-03-29T11:45:23.395Z,13.33
2023-03-29T11:47:51.507Z,13.32
2023-03-29T11:50:44.847Z,13.39
2023-03-29T11:53:17.064Z,13.39
2023-03-29T11:55:44.637Z,13.40
2023-03-29T11:58:22.427Z,13.38
2023-03-29T12:01:01.780Z,13.39
2023-03-29T12:03:40.397Z,13.39
2023-03-29T12:06:31.967Z,13.37
2023-03-29T12:09:04.583Z,13.35
2023-03-29T12:11:38.551Z,13.39
2023-03-29T12:14:14.143Z,13.40
2023-03-29T12:17:22.978Z,13.40
2023-03-29T12:20:15.110Z,13.37
2023-03-29T12:22:41.665Z,13.31
2023-03-29T12:25:18.218Z,13.29
2023-03-29T12:27:56.246Z,13.28
2023-03-29T12:30:46.424Z,13.25
2023-03-29T12:33:28.238Z,13.17
2023-03-29T12:36:09.847Z,13.12
2023-03-29T12:38:37.668Z,13.10
2023-03-29T12:41:16.637Z,13.05
2023-03-29T12:43:43.559Z,13.01
2023-03-29T12:46:19.434Z,12.99
2023-03-29T12:48:49.331Z,12.99
2023-03-29T12:51:23.383Z,12.98
2023-03-29T12:53:53.684Z,13.00
2023-03-29T12:56:36.329Z,13.02
2023-03-29T12:59:10.762Z,13.03
2023-03-29T13:01:41.491Z,12.97
2023-03-29T13:04:17.543Z,13.01
2023-03-29T13:06:46.817Z,13.03
2023-03-29T13:10:06.035Z,13.00
2023-03-29T13:12:35.798Z,13.03
2023-03-29T13:15:07.818Z,13.05
2023-03-29T13:17:42.860Z,13.06
2023-03-29T13:20:29.001Z,13.02
2023-03-29T13:23:21.633Z,13.05
2023-03-29T13:26:07.640Z,13.12
2023-03-29T13:28:57.934Z,13.28
2023-03-29T13:31:33.538Z,13.38
2023-03-29T13:34:31.030Z,13.48
2023-03-29T13:37:10.566Z,13.53
2023-03-29T13:39:47.317Z,13.52
2023-03-29T13:42:19.374Z,13.55
2023-03-29T13:44:48.957Z,13.59
2023-03-29T13:47:41.810Z,13.63
2023-03-29T13:50:18.542Z,13.64
2023-03-29T13:52:58.722Z,13.66
2023-03-29T13:55:32.273Z,13.71
2023-03-29T13:58:10.211Z,13.72
2023-03-29T14:00:47.045Z,13.74
2023-03-29T14:03:18.476Z,13.80
2023-03-29T14:05:50.626Z,13.87
2023-03-29T14:08:25.418Z,13.92
2023-03-29T14:10:53.444Z,13.98
2023-03-29T14:13:23.367Z,14.00
2023-03-29T14:16:11.658Z,14.01
2023-03-29T14:18:41.239Z,14.02
2023-03-29T14:21:08.571Z,14.05
2023-03-29T14:23:37.409Z,14.10
2023-03-29T14:26:16.670Z,14.17
2023-03-29T14:28:56.504Z,14.25
2023-03-29T14:31:30.541Z,14.32
2023-03-29T14:33:59.276Z,14.40
2023-03-29T14:36:27.192Z,14.46
2023-03-29T14:39:18.337Z,14.58
2023-03-29T14:41:51.676Z,14.66
2023-03-29T14:44:21.703Z,14.72
2023-03-29T14:46:48.309Z,14.79
2023-03-29T14:49:20.654Z,14.82
2023-03-29T14:51:48.215Z,14.85
2023-03-29T14:54:33.324Z,14.88
2023-03-29T14:57:03.705Z,14.84
2023-03-29T14:59:37.393Z,14.84
2023-03-29T15:02:21.751Z,14.78
2023-03-29T15:05:04.960Z,14.77
2023-03-29T15:07:36.988Z,14.74
2023-03-29T15:10:06.389Z,14.77
2023-03-29T15:12:34.112Z,14.79
2023-03-29T15:15:01.457Z,14.78
2023-03-29T15:17:51.216Z,14.81
2023-03-29T15:20:27.105Z,14.83
2023-03-29T15:22:58.663Z,14.88
2023-03-29T15:25:37.633Z,14.90
2023-03-29T15:28:04.901Z,14.93
2023-03-29T15:30:34.769Z,14.98
2023-03-29T15:33:16.561Z,15.00
2023-03-29T15:35:47.409Z,15.02
2023-03-29T15:38:14.204Z,15.10
2023-03-29T15:40:41.163Z,15.10
2023-03-29T15:43:07.867Z,15.08
2023-03-29T15:45:34.679Z,15.09
2023-03-29T15:48:04.787Z,15.08
2023-03-29T15:50:32.478Z,15.08
2023-03-29T15:53:05.409Z,15.07
2023-03-29T15:55:44.963Z,15.07
2023-03-29T15:58:16.904Z,15.09
2023-03-29T16:00:48.456Z,15.06
2023-03-29T16:03:15.985Z,15.05
2023-03-29T16:05:45.421Z,15.08
2023-03-29T16:08:13.166Z,15.10
2023-03-29T16:10:41.224Z,15.09
2023-03-29T16:13:10.039Z,15.07
2023-03-29T16:15:37.183Z,15.06
2023-03-29T16:18:05.232Z,15.05
2023-03-29T16:20:32.186Z,15.06
2023-03-29T16:22:58.678Z,15.06
2023-03-29T16:25:25.341Z,15.00
2023-03-29T16:28:01.574Z,15.01
2023-03-29T16:30:28.625Z,14.99
2023-03-29T16:32:55.201Z,15.00
2023-03-29T16:35:26.361Z,15.02
2023-03-29T16:37:52.733Z,15.00
2023-03-29T16:40:20.980Z,15.03
2023-03-29T16:42:47.870Z,15.03
2023-03-29T16:45:14.929Z,15.04
2023-03-29T16:47:44.894Z,15.03
2023-03-29T16:50:12.958Z,15.05
2023-03-29T16:52:40.022Z,15.05
2023-03-29T16:55:07.872Z,15.02
2023-03-29T16:57:34.438Z,14.99
2023-03-29T17:00:01.178Z,14.97
2023-03-29T17:02:27.775Z,14.97
2023-03-29T17:04:54.354Z,14.97
2023-03-29T17:07:20.797Z,14.97
2023-03-29T17:09:47.424Z,14.97
2023-03-29T17:12:14.241Z,14.93
2023-03-29T17:14:41.899Z,14.92
2023-03-29T17:17:08.330Z,14.94
2023-03-29T17:19:34.868Z,14.93
2023-03-29T17:22:01.324Z,14.92
2023-03-29T17:24:30.859Z,14.94
2023-03-29T17:26:58.955Z,14.94
2023-03-29T17:29:25.376Z,14.93
2023-03-29T17:31:51.821Z,14.94
2023-03-29T17:34:19.343Z,14.93
2023-03-29T17:36:46.200Z,14.94
2023-03-29T17:39:15.270Z,14.96
2023-03-29T17:41:42.508Z,14.97
2023-03-29T17:44:08.973Z,14.97
2023-03-29T17:46:35.463Z,14.95
2023-03-29T17:49:04.074Z,14.95
2023-03-29T17:51:30.965Z,14.95
2023-03-29T17:53:58.460Z,14.93
2023-03-29T17:56:26.807Z,14.93
2023-03-29T17:58:53.827Z,14.92
2023-03-29T18:01:28.154Z,14.85
2023-03-29T18:03:54.872Z,14.83
2023-03-29T18:06:21.403Z,14.82
2023-03-29T18:08:48.234Z,14.78
2023-03-29T18:11:22.774Z,14.79
2023-03-29T18:13:51.273Z,14.74
2023-03-29T18:16:18.598Z,14.72
2023-03-29T18:18:46.368Z,14.65
2023-03-29T18:21:14.808Z,14.62
2023-03-29T18:23:45.089Z,14.60
2023-03-29T18:26:12.231Z,14.56
2023-03-29T18:28:38.948Z,14.53
2023-03-29T18:31:06.027Z,14.50
2023-03-29T18:33:35.229Z,14.49
2023-03-29T18:36:09.848Z,14.47
2023-03-29T18:41:08.533Z,14.40
2023-03-29T18:43:35.984Z,14.37
2023-03-29T18:46:03.255Z,14.35
2023-03-29T18:48:30.269Z,14.36
2023-03-29T18:50:57.822Z,14.35
2023-03-29T18:53:24.602Z,14.33
2023-03-29T18:55:55.383Z,14.31
2023-03-29T18:58:23.964Z,14.28
2023-03-29T19:00:51.382Z,14.26
2023-03-29T19:03:18.311Z,14.25
2023-03-29T19:05:44.861Z,14.24
2023-03-29T19:08:11.324Z,14.21
2023-03-29T19:10:39.273Z,14.20
2023-03-29T19:13:06.216Z,14.21
2023-03-29T19:15:34.688Z,14.17
2023-03-29T19:18:01.491Z,14.17
2023-03-29T19:20:28.375Z,14.17
2023-03-29T19:22:54.825Z,14.14
2023-03-29T19:25:21.455Z,14.16
2023-03-29T19:27:47.890Z,14.17
2023-03-29T19:30:14.866Z,14.14
2023-03-29T19:32:41.283Z,14.14
2023-03-29T19:35:09.546Z,14.13
2023-03-29T19:37:36.109Z,14.11
2023-03-29T19:40:03.726Z,14.10
2023-03-29T19:42:30.343Z,14.08
2023-03-29T19:44:56.838Z,14.08
2023-03-29T19:47:24.478Z,14.07
2023-03-29T19:49:51.406Z,14.05
2023-03-29T19:52:17.842Z,14.02
2023-03-29T19:54:47.286Z,14.04
2023-03-29T19:57:13.780Z,14.04
2023-03-29T19:59:43.020Z,14.04
2023-03-29T20:02:11.330Z,14.03
2023-03-29T20:04:37.926Z,14.04
2023-03-29T20:07:04.685Z,14.02
2023-03-29T20:09:32.755Z,14.04
2023-03-29T20:12:00.167Z,14.05
2023-03-29T20:14:28.273Z,14.02
2023-03-29T20:16:55.178Z,14.02
2023-03-29T20:19:25.317Z,14.03
2023-03-29T20:21:58.718Z,14.02
2023-03-29T20:24:25.352Z,14.00
2023-03-29T20:26:52.685Z,14.01
2023-03-29T20:29:19.142Z,14.00
2023-03-29T20:31:46.425Z,14.02
2023-03-29T20:34:13.050Z,14.04
2023-03-29T20:36:40.565Z,14.03
2023-03-29T20:39:19.613Z,14.04
2023-03-29T20:41:47.668Z,14.05
2023-03-29T20:44:16.705Z,14.06
2023-03-29T20:46:54.059Z,14.08
2023-03-29T20:49:26.681Z,14.08
2023-03-29T20:52:03.260Z,14.06
2023-03-29T20:54:29.716Z,14.08
2023-03-29T20:56:56.464Z,14.07
2023-03-29T20:59:22.950Z,14.06
2023-03-29T21:01:50.329Z,14.07
2023-03-29T21:04:17.677Z,14.05
2023-03-29T21:06:45.682Z,14.06
2023-03-29T21:09:13.245Z,14.06
2023-03-29T21:11:39.818Z,14.06
2023-03-29T21:14:06.241Z,14.02
2023-03-29T21:16:32.703Z,14.02
2023-03-29T21:18:59.135Z,14.03
2023-03-29T21:21:25.630Z,14.02
2023-03-29T21:23:52.152Z,14.00
2023-03-29T21:26:18.626Z,13.97
2023-03-29T21:28:45.317Z,13.94
2023-03-29T21:31:11.766Z,13.92
2023-03-29T21:33:38.279Z,13.89
2023-03-29T21:36:05.609Z,13.87
2023-03-29T21:38:32.259Z,13.86
2023-03-29T21:41:00.256Z,13.85
2023-03-29T21:43:26.893Z,13.85
2023-03-29T21:45:53.367Z,13.82
2023-03-29T21:48:19.798Z,13.83
2023-03-29T21:50:49.860Z,13.82
2023-03-29T21:53:16.674Z,13.85
2023-03-29T21:55:43.083Z,13.85
2023-03-29T21:58:09.661Z,13.86
2023-03-29T22:00:36.088Z,13.87
2023-03-29T22:03:02.540Z,13.87
2023-03-29T22:05:28.987Z,13.89
2023-03-29T22:07:58.532Z,13.92
2023-03-29T22:10:25.246Z,13.90
2023-03-29T22:13:00.973Z,13.93
2023-03-29T22:15:29.362Z,13.92
2023-03-29T22:17:59.753Z,13.94
2023-03-29T22:20:27.432Z,13.94
2023-03-29T22:22:53.907Z,13.96
2023-03-29T22:25:20.817Z,13.98
2023-03-29T22:27:48.736Z,13.98
2023-03-29T22:30:16.260Z,14.00
2023-03-29T22:32:42.904Z,14.01
2023-03-29T22:35:10.002Z,14.02
2023-03-29T22:37:44.121Z,14.04
2023-03-29T22:40:12.114Z,14.05
2023-03-29T22:42:38.849Z,14.04
2023-03-29T22:45:06.524Z,14.04
2023-03-29T22:47:33.116Z,14.07
2023-03-29T22:49:59.477Z,14.10
2023-03-29T22:52:26.042Z,14.13
2023-03-29T22:54:52.557Z,14.14
2023-03-29T22:57:18.967Z,14.14
2023-03-29T22:59:45.405Z,14.16
2023-03-29T23:02:11.865Z,14.19
2023-03-29T23:04:38.812Z,14.19
2023-03-29T23:07:07.614Z,14.21
2023-03-29T23:09:34.033Z,14.22
2023-03-29T23:12:01.161Z,14.22
2023-03-29T23:14:27.817Z,14.21
2023-03-29T23:16:54.342Z,14.24
2023-03-29T23:19:20.763Z,14.26
2023-03-29T23:21:47.141Z,14.29
2023-03-29T23:24:13.532Z,14.32
2023-03-29T23:26:39.980Z,14.26
2023-03-29T23:29:06.389Z,14.34
2023-03-29T23:31:33.835Z,14.36
2023-03-29T23:34:00.288Z,14.40
2023-03-29T23:36:31.087Z,14.40
2023-03-29T23:38:59.436Z,14.42
2023-03-29T23:41:30.421Z,14.44
2023-03-29T23:43:57.662Z,14.45
2023-03-29T23:46:31.370Z,14.48
2023-03-29T23:48:58.338Z,14.48
2023-03-29T23:51:28.789Z,14.49
2023-03-29T23:53:56.312Z,14.50
2023-03-29T23:56:22.866Z,14.50
2023-03-29T23:58:49.402Z,14.52
